TUS weather

Tucson International Airport
Tucson, Arizona, United States

Public forecast

Using degrees Fahrenheit for public forecast. Weather courtesy of forecast.io.

METAR (pilot weather report)

Retrieved 2019/05/26 03:53 UTC (1 hour ago):

KTUS 260353Z 19005KT 10SM CLR 26/M07 A2984 RMK AO2 SLP063 T02561067

TAF (pilot weather forecast)

Forecast is more than 12 hours old.

Retrieved 2019/05/25 00:30 UTC (1 day ago):

TAF KTUS 252327Z 2600/2624 24015G25KT P6SM SKC FM260300 25008KT P6SM SKC FM260800 16005KT P6SM SKC FM261600 19013G23KT P6SM SKC FM261900 21020G30KT P6SM SKC